Time;durP1;ratioP1;P1;durP2;ratioP2;P2;SDS_P1;SDS_P2;PMS_P1;PMS_P2;Temp;Humidity;BMP_temperature;BMP_pressure;BME280_temperature;BME280_humidity;BME280_pressure;Samples;Min_cycle;Max_cycle;Signal;HPM_P1;HPM_P2
2021/11/05 00:00:25;;;;;;;24.72;15.23;;;;;;;14.47;100.00;101283.65;1801104;78;21067;-65
2021/11/05 00:02:57;;;;;;;28.15;14.87;;;;;;;14.47;100.00;101282.30;1809454;78;21069;-64
2021/11/05 00:05:25;;;;;;;26.75;14.05;;;;;;;14.49;100.00;101271.45;1807790;78;21130;-63
2021/11/05 00:07:52;;;;;;;24.55;14.53;;;;;;;14.51;100.00;101272.27;1807464;77;21109;-63
2021/11/05 00:10:19;;;;;;;24.72;14.65;;;;;;;14.50;100.00;101273.20;1794093;78;21099;-64
2021/11/05 00:12:45;;;;;;;25.95;14.45;;;;;;;14.52;100.00;101278.06;1803465;78;20988;-63
2021/11/05 00:15:12;;;;;;;24.85;14.25;;;;;;;14.53;100.00;101275.77;1802617;78;21057;-65
2021/11/05 00:17:41;;;;;;;28.27;14.30;;;;;;;14.54;100.00;101280.67;1804329;77;21004;-63
2021/11/05 00:20:09;;;;;;;29.20;13.90;;;;;;;14.54;100.00;101273.47;1796079;78;21111;-63
2021/11/05 00:22:36;;;;;;;21.37;14.18;;;;;;;14.54;100.00;101272.58;1805902;78;21080;-64
2021/11/05 00:25:09;;;;;;;26.42;13.80;;;;;;;14.53;100.00;101271.72;1793522;78;21158;-64
2021/11/05 00:27:35;;;;;;;28.62;13.75;;;;;;;14.56;100.00;101278.33;1758899;79;21126;-64
2021/11/05 00:30:04;;;;;;;21.68;13.93;;;;;;;14.57;100.00;101271.09;1765804;80;21094;-63
2021/11/05 00:32:31;;;;;;;24.27;13.15;;;;;;;14.54;100.00;101277.52;1811553;78;21051;-64
2021/11/05 00:34:57;;;;;;;22.15;13.22;;;;;;;14.52;100.00;101272.67;1805724;78;21255;-65
2021/11/05 00:37:24;;;;;;;24.80;14.53;;;;;;;14.51;100.00;101266.87;1805504;77;21580;-63
2021/11/05 00:39:51;;;;;;;25.70;13.45;;;;;;;14.51;100.00;101264.63;1803169;78;21498;-62
2021/11/05 00:42:17;;;;;;;26.42;14.90;;;;;;;14.50;100.00;101256.12;1799951;78;21088;-63
2021/11/05 00:44:44;;;;;;;23.52;14.38;;;;;;;14.49;100.00;101255.72;1803870;78;21114;-64
2021/11/05 00:47:11;;;;;;;24.85;13.55;;;;;;;14.48;100.00;101249.47;1803572;77;21085;-64
2021/11/05 00:49:38;;;;;;;25.50;14.45;;;;;;;14.47;100.00;101250.38;1773932;79;21474;-64
2021/11/05 00:52:05;;;;;;;25.97;14.15;;;;;;;14.46;100.00;101254.02;1775682;79;21104;-64
2021/11/05 00:54:31;;;;;;;24.27;13.62;;;;;;;14.47;100.00;101258.02;1774474;79;21980;-64
2021/11/05 00:56:58;;;;;;;29.85;14.20;;;;;;;14.49;100.00;101253.92;1780077;78;22134;-63
2021/11/05 00:59:25;;;;;;;25.68;13.55;;;;;;;14.48;100.00;101238.67;1777194;79;20997;-63
2021/11/05 01:01:51;;;;;;;23.75;12.78;;;;;;;14.46;100.00;101248.17;1777306;79;21608;-63
2021/11/05 01:04:18;;;;;;;27.52;12.98;;;;;;;14.47;100.00;101244.98;1723625;81;21082;-63
2021/11/05 01:06:44;;;;;;;19.45;12.90;;;;;;;14.48;100.00;101235.98;1712911;82;21980;-64
2021/11/05 01:09:11;;;;;;;25.70;12.85;;;;;;;14.49;100.00;101240.43;1728728;82;21650;-63
2021/11/05 01:11:38;;;;;;;26.37;13.58;;;;;;;14.52;100.00;101242.98;1723005;82;21852;-64
2021/11/05 01:14:04;;;;;;;22.07;12.78;;;;;;;14.54;100.00;101249.19;1724563;80;21076;-64
2021/11/05 01:16:33;;;;;;;22.22;13.22;;;;;;;14.56;100.00;101241.91;1738730;81;21054;-65
2021/11/05 01:18:59;;;;;;;24.18;13.95;;;;;;;14.57;100.00;101237.36;1709870;81;21331;-64
2021/11/05 01:21:26;;;;;;;23.38;13.68;;;;;;;14.56;100.00;101247.30;1721911;82;21064;-63
2021/11/05 01:23:53;;;;;;;23.87;13.93;;;;;;;14.55;100.00;101245.55;1723802;80;21060;-64
2021/11/05 01:26:21;;;;;;;23.27;13.22;;;;;;;14.54;100.00;101248.30;1724094;81;21064;-63
2021/11/05 01:28:48;;;;;;;25.45;13.20;;;;;;;14.54;100.00;101237.05;1772559;79;21002;-64
2021/11/05 01:31:14;;;;;;;28.35;12.75;;;;;;;14.53;100.00;101239.34;1778380;79;22126;-63
2021/11/05 01:33:43;;;;;;;22.70;14.05;;;;;;;14.52;100.00;101247.49;1778623;78;21037;-64
2021/11/05 01:36:10;;;;;;;21.45;12.63;;;;;;;14.51;100.00;101245.73;1774673;79;21269;-63
2021/11/05 01:38:37;;;;;;;25.77;13.53;;;;;;;14.50;100.00;101242.18;1773037;79;21550;-63
2021/11/05 01:41:04;;;;;;;23.70;11.57;;;;;;;14.51;100.00;101246.63;1748314;80;21123;-63
2021/11/05 01:43:32;;;;;;;23.47;13.53;;;;;;;14.52;100.00;101239.39;1727197;81;21464;-64
2021/11/05 01:45:59;;;;;;;20.92;11.53;;;;;;;14.53;100.00;101246.09;1723236;82;21088;-63
2021/11/05 01:48:25;;;;;;;21.87;12.33;;;;;;;14.51;100.00;101243.93;1716619;82;21594;-63
2021/11/05 01:50:54;;;;;;;25.80;12.45;;;;;;;14.52;100.00;101244.80;1720612;81;21120;-63
2021/11/05 01:53:21;;;;;;;24.70;12.80;;;;;;;14.51;100.00;101241.23;1724529;80;21052;-64
2021/11/05 01:55:47;;;;;;;23.22;12.88;;;;;;;14.51;100.00;101238.53;1723561;81;22343;-63
2021/11/05 01:58:14;;;;;;;22.32;11.43;;;;;;;14.50;100.00;101248.92;1725414;82;21607;-63
2021/11/05 02:00:41;;;;;;;20.75;12.00;;;;;;;14.47;100.00;101238.23;1728163;82;21143;-63
2021/11/05 02:03:07;;;;;;;29.85;13.08;;;;;;;14.49;100.00;101242.23;1727311;80;21033;-64
2021/11/05 02:05:35;;;;;;;22.15;12.37;;;;;;;14.49;100.00;101247.17;1726251;81;21481;-64
2021/11/05 02:08:02;;;;;;;20.92;12.18;;;;;;;14.50;100.00;101243.98;1719872;82;21924;-64
2021/11/05 02:10:29;;;;;;;28.85;13.08;;;;;;;14.50;100.00;101246.69;1719671;82;21566;-64
2021/11/05 02:12:56;;;;;;;23.70;11.73;;;;;;;14.48;100.00;101246.77;1777789;78;21023;-63
2021/11/05 02:15:23;;;;;;;21.82;11.38;;;;;;;14.49;100.00;101255.27;1775927;79;21117;-63
2021/11/05 02:17:50;;;;;;;27.17;11.45;;;;;;;14.50;100.00;101257.02;1775621;79;21544;-63
2021/11/05 02:20:20;;;;;;;20.70;10.98;;;;;;;14.50;100.00;101251.63;1773693;79;21589;-64
2021/11/05 02:22:47;;;;;;;17.95;10.85;;;;;;;14.51;100.00;101241.23;1779937;78;20986;-64
2021/11/05 02:25:14;;;;;;;22.30;11.63;;;;;;;14.51;100.00;101233.14;1775928;79;21132;-64
2021/11/05 02:27:40;;;;;;;28.85;10.70;;;;;;;14.52;100.00;101239.39;1777004;79;21006;-63
2021/11/05 02:30:08;;;;;;;24.55;11.08;;;;;;;14.51;100.00;101235.84;1774155;79;21052;-64
2021/11/05 02:32:36;;;;;;;23.40;11.97;;;;;;;14.53;100.00;101241.15;1776667;78;21094;-65
2021/11/05 02:35:05;;;;;;;25.95;11.95;;;;;;;14.52;100.00;101239.39;1739237;81;21049;-64
2021/11/05 02:37:33;;;;;;;23.00;12.15;;;;;;;14.51;100.00;101243.04;1742567;81;20984;-63
2021/11/05 02:39:59;;;;;;;22.48;12.23;;;;;;;14.51;100.00;101247.98;1721432;82;21142;-63
2021/11/05 02:42:26;;;;;;;24.70;11.48;;;;;;;14.51;100.00;101253.38;1725948;81;21240;-64
2021/11/05 02:44:53;;;;;;;20.27;11.25;;;;;;;14.53;100.00;101244.74;1744395;80;21570;-63
2021/11/05 02:47:25;;;;;;;23.65;11.93;;;;;;;14.53;100.00;101246.09;1738836;80;21022;-64
2021/11/05 02:49:59;;;;;;;20.27;11.53;;;;;;;14.55;100.00;101236.56;1740588;80;21079;-63
2021/11/05 02:52:25;;;;;;;22.80;11.60;;;;;;;14.57;100.00;101245.46;1749583;80;21290;-64
2021/11/05 02:54:52;;;;;;;21.27;10.63;;;;;;;14.56;100.00;101237.86;1753435;80;21505;-64
2021/11/05 02:57:18;;;;;;;14.87;10.48;;;;;;;14.58;100.00;101238.66;1749356;80;21495;-64
2021/11/05 02:59:45;;;;;;;29.05;12.28;;;;;;;14.56;100.00;101250.00;1752380;79;21040;-63
2021/11/05 03:02:13;;;;;;;23.62;11.30;;;;;;;14.53;100.00;101255.53;1745982;80;21039;-64
2021/11/05 03:04:40;;;;;;;23.00;11.55;;;;;;;14.51;100.00;101252.03;1760435;80;21093;-65
2021/11/05 03:07:09;;;;;;;23.75;11.80;;;;;;;14.51;100.00;101256.53;1735216;80;21036;-65
2021/11/05 03:09:40;;;;;;;20.12;11.12;;;;;;;14.52;100.00;101256.48;1751594;80;21446;-64
2021/11/05 03:12:08;;;;;;;23.18;11.18;;;;;;;14.53;100.00;101260.03;1762204;80;21131;-64
2021/11/05 03:14:37;;;;;;;20.97;11.12;;;;;;;14.53;100.00;101251.48;1768774;80;21046;-64
2021/11/05 03:17:04;;;;;;;19.27;11.40;;;;;;;14.53;100.00;101260.92;1793346;78;21456;-65
2021/11/05 03:19:32;;;;;;;25.02;11.15;;;;;;;14.54;100.00;101259.09;1801806;77;21028;-64
2021/11/05 03:21:59;;;;;;;21.23;11.12;;;;;;;14.52;100.00;101259.17;1800031;78;21134;-64
2021/11/05 03:24:26;;;;;;;20.17;11.60;;;;;;;14.50;100.00;101263.77;1795216;78;21028;-64
2021/11/05 03:26:52;;;;;;;19.02;11.05;;;;;;;14.50;100.00;101254.78;1803518;78;21124;-63
2021/11/05 03:29:20;;;;;;;25.50;12.15;;;;;;;14.46;100.00;101260.31;1804925;77;21055;-63
2021/11/05 03:31:47;;;;;;;22.77;11.43;;;;;;;14.43;100.00;101248.31;1797506;78;21009;-64
2021/11/05 03:34:13;;;;;;;25.37;11.73;;;;;;;14.42;100.00;101249.70;1801608;78;21091;-66
2021/11/05 03:36:40;;;;;;;33.85;13.18;;;;;;;14.40;100.00;101250.25;1796245;78;21080;-65
2021/11/05 03:39:06;;;;;;;24.18;10.95;;;;;;;14.41;100.00;101249.30;1800365;77;21029;-63
2021/11/05 03:41:33;;;;;;;22.93;11.75;;;;;;;14.41;100.00;101246.61;1802815;78;21317;-63
2021/11/05 03:44:00;;;;;;;18.32;10.82;;;;;;;14.40;100.00;101247.55;1799405;78;20961;-64
2021/11/05 03:46:27;;;;;;;21.37;11.63;;;;;;;14.38;100.00;101250.80;1742794;80;21551;-64
2021/11/05 03:48:54;;;;;;;22.30;11.25;;;;;;;14.36;100.00;101252.68;1794406;77;21129;-65
2021/11/05 03:51:21;;;;;;;15.38;10.32;;;;;;;14.36;100.00;101247.28;1772190;79;21061;-66
2021/11/05 03:53:48;;;;;;;22.32;10.48;;;;;;;14.36;100.00;101240.55;1770887;79;21015;-66
2021/11/05 03:56:15;;;;;;;23.77;11.20;;;;;;;14.33;100.00;101241.09;1776655;79;21048;-64
2021/11/05 03:58:41;;;;;;;25.37;11.12;;;;;;;14.32;100.00;101243.37;1778720;78;22353;-64
2021/11/05 04:01:08;;;;;;;26.12;12.33;;;;;;;14.31;100.00;101232.64;1770726;79;21013;-65
2021/11/05 04:03:36;;;;;;;22.90;11.12;;;;;;;14.34;100.00;101241.95;1775178;79;21017;-64
2021/11/05 04:06:02;;;;;;;20.88;11.68;;;;;;;14.35;100.00;101244.19;1776235;79;21549;-64
2021/11/05 04:08:29;;;;;;;25.17;12.23;;;;;;;14.33;100.00;101238.39;1732003;81;21080;-64
2021/11/05 04:10:57;;;;;;;26.15;11.40;;;;;;;14.33;100.00;101237.04;1709566;82;21146;-65
2021/11/05 04:13:26;;;;;;;24.57;12.28;;;;;;;14.35;100.00;101240.14;1739263;81;21050;-65
2021/11/05 04:15:54;;;;;;;24.92;11.68;;;;;;;14.32;100.00;101237.98;1722728;81;21031;-65
2021/11/05 04:18:20;;;;;;;25.77;11.00;;;;;;;14.33;100.00;101232.09;1715275;81;21092;-65
2021/11/05 04:20:47;;;;;;;18.80;10.70;;;;;;;14.33;100.00;101238.84;1723035;80;21042;-65
2021/11/05 04:23:16;;;;;;;26.55;11.43;;;;;;;14.33;100.00;101240.19;1725131;81;21136;-64
2021/11/05 04:25:42;;;;;;;21.33;11.38;;;;;;;14.33;100.00;101238.39;1741133;79;21045;-64
2021/11/05 04:28:09;;;;;;;24.80;12.00;;;;;;;14.33;100.00;101241.09;1720891;81;21386;-65
2021/11/05 04:30:36;;;;;;;22.05;10.88;;;;;;;14.37;100.00;101235.55;1731412;81;21147;-65
2021/11/05 04:33:04;;;;;;;22.58;11.55;;;;;;;14.37;100.00;101228.81;1734324;81;21521;-65
2021/11/05 04:35:30;;;;;;;22.25;11.40;;;;;;;14.37;100.00;101225.66;1778334;77;21652;-65
2021/11/05 04:37:57;;;;;;;28.30;12.88;;;;;;;14.38;100.00;101226.52;1779700;79;21486;-65
2021/11/05 04:40:24;;;;;;;26.60;11.95;;;;;;;14.39;100.00;101236.36;1779896;79;21052;-66
2021/11/05 04:42:51;;;;;;;26.45;11.80;;;;;;;14.43;100.00;101217.74;1774523;79;21107;-64
2021/11/05 04:45:17;;;;;;;26.45;12.25;;;;;;;14.45;100.00;101222.14;1742175;79;21027;-65
2021/11/05 04:47:44;;;;;;;23.35;12.07;;;;;;;14.43;100.00;101225.38;1720990;80;22002;-65
2021/11/05 04:50:11;;;;;;;27.73;12.58;;;;;;;14.45;100.00;101230.23;1745380;81;21092;-65
2021/11/05 04:52:38;;;;;;;19.87;11.85;;;;;;;14.48;100.00;101237.33;1740446;80;21089;-66
2021/11/05 04:55:06;;;;;;;20.65;12.37;;;;;;;14.49;100.00;101239.53;1743326;79;21495;-65
2021/11/05 04:57:33;;;;;;;23.90;12.00;;;;;;;14.50;100.00;101236.78;1725652;81;21577;-64
2021/11/05 05:00:00;;;;;;;22.45;12.60;;;;;;;14.49;100.00;101241.78;1711069;82;21158;-64
2021/11/05 05:02:27;;;;;;;22.42;12.55;;;;;;;14.51;100.00;101252.03;1742381;80;21057;-66
2021/11/05 05:04:53;;;;;;;23.55;12.90;;;;;;;14.51;100.00;101257.42;1740573;80;21045;-64
2021/11/05 05:07:21;;;;;;;26.75;13.60;;;;;;;14.53;100.00;101262.73;1742591;80;21098;-64
2021/11/05 05:09:47;;;;;;;23.40;13.40;;;;;;;14.53;100.00;101267.67;1742393;81;21096;-66
2021/11/05 05:12:13;;;;;;;30.15;12.35;;;;;;;14.51;100.00;101269.56;1721469;80;21775;-65
2021/11/05 05:14:41;;;;;;;25.75;11.93;;;;;;;14.52;100.00;101278.52;1721723;81;21077;-66
2021/11/05 05:17:08;;;;;;;25.32;12.78;;;;;;;14.53;100.00;101274.42;1724118;81;21350;-64
2021/11/05 05:19:36;;;;;;;24.30;12.55;;;;;;;14.54;100.00;101273.93;1732870;81;21049;-64
2021/11/05 05:22:03;;;;;;;23.75;12.37;;;;;;;14.57;100.00;101280.08;1723798;82;21440;-65
2021/11/05 05:24:30;;;;;;;26.82;12.68;;;;;;;14.57;100.00;101271.98;1721495;80;21661;-66
2021/11/05 05:26:56;;;;;;;27.15;12.15;;;;;;;14.61;100.00;101273.60;1723444;81;21510;-65
2021/11/05 05:29:23;;;;;;;22.70;12.70;;;;;;;14.65;100.00;101295.05;1726879;81;21052;-65
2021/11/05 05:31:51;;;;;;;23.35;12.58;;;;;;;14.68;100.00;101286.81;1717929;81;20957;-63
2021/11/05 05:34:17;;;;;;;25.00;12.33;;;;;;;14.70;100.00;101298.42;1723473;80;21088;-65
2021/11/05 05:36:44;;;;;;;25.60;12.78;;;;;;;14.69;100.00;101297.56;1731108;82;21135;-64
2021/11/05 05:39:11;;;;;;;24.27;12.37;;;;;;;14.71;100.00;101301.59;1773263;79;21062;-66
2021/11/05 05:41:38;;;;;;;21.40;12.20;;;;;;;14.76;100.00;101303.61;1773016;79;21038;-64
2021/11/05 05:44:05;;;;;;;25.97;13.28;;;;;;;14.80;100.00;101300.28;1773056;78;21076;-65
2021/11/05 05:46:31;;;;;;;26.23;12.25;;;;;;;14.82;100.00;101289.83;1775533;79;21080;-64
2021/11/05 05:48:58;;;;;;;22.00;12.20;;;;;;;14.88;100.00;101287.34;1773566;79;21837;-64
2021/11/05 05:51:24;;;;;;;19.45;10.70;;;;;;;14.93;100.00;101295.24;1776378;79;21519;-65
2021/11/05 05:53:51;;;;;;;23.15;11.43;;;;;;;14.98;100.00;101293.20;1727794;81;21108;-65
2021/11/05 05:56:17;;;;;;;23.18;11.95;;;;;;;15.01;100.00;101295.77;1724081;81;21078;-64
2021/11/05 05:58:44;;;;;;;21.60;11.55;;;;;;;15.02;100.00;101296.16;1726397;81;21432;-64
2021/11/05 06:01:10;;;;;;;24.63;11.90;;;;;;;15.03;100.00;101289.81;1725441;81;21200;-66
2021/11/05 06:03:39;;;;;;;21.55;11.90;;;;;;;15.07;100.00;101284.67;1725165;81;21029;-65
2021/11/05 06:06:06;;;;;;;21.70;11.43;;;;;;;15.12;100.00;101297.48;1741495;81;21092;-65
2021/11/05 06:08:32;;;;;;;20.88;11.63;;;;;;;15.16;100.00;101281.58;1744297;80;21053;-66
2021/11/05 06:10:59;;;;;;;18.27;11.80;;;;;;;15.22;100.00;101288.98;1743920;79;21094;-65
2021/11/05 06:13:26;;;;;;;21.97;12.60;;;;;;;15.26;100.00;101287.89;1726621;81;21065;-65
2021/11/05 06:15:54;;;;;;;22.22;12.75;;;;;;;15.24;100.00;101281.19;1722936;80;21442;-65
2021/11/05 06:18:20;;;;;;;21.37;12.18;;;;;;;15.25;100.00;101280.73;1720285;82;22234;-65
2021/11/05 06:20:47;;;;;;;22.90;11.60;;;;;;;15.24;100.00;101294.70;1716594;81;21057;-64
2021/11/05 06:23:13;;;;;;;19.75;11.40;;;;;;;15.22;100.00;101279.53;1743651;81;21044;-64
2021/11/05 06:25:40;;;;;;;26.35;12.30;;;;;;;15.22;100.00;101280.87;1746365;80;21136;-67
2021/11/05 06:28:07;;;;;;;27.58;11.80;;;;;;;15.24;100.00;101274.93;1739797;80;22407;-63
2021/11/05 06:30:34;;;;;;;22.77;11.83;;;;;;;15.28;100.00;101297.69;1732402;80;21065;-64
2021/11/05 06:33:02;;;;;;;21.12;11.83;;;;;;;15.31;100.00;101300.70;1719808;81;21089;-65
2021/11/05 06:35:29;;;;;;;29.67;12.37;;;;;;;15.34;100.00;101300.55;1723841;81;21161;-65
2021/11/05 06:37:58;;;;;;;27.52;12.82;;;;;;;15.39;100.00;101315.21;1728920;82;21158;-65
2021/11/05 06:40:24;;;;;;;24.63;12.78;;;;;;;15.43;100.00;101315.00;1721854;80;21148;-65
2021/11/05 06:42:51;;;;;;;28.07;13.40;;;;;;;15.46;100.00;101332.42;1722808;81;21053;-64
2021/11/05 06:45:18;;;;;;;24.23;13.68;;;;;;;15.51;100.00;101339.43;1728647;81;21350;-65
2021/11/05 06:47:45;;;;;;;33.83;13.32;;;;;;;15.57;100.00;101341.84;1724419;81;21476;-64
2021/11/05 06:50:12;;;;;;;33.23;12.13;;;;;;;15.62;100.00;101345.23;1727376;81;21565;-67
2021/11/05 06:52:40;;;;;;;27.13;11.75;;;;;;;15.68;100.00;101342.23;1731793;81;21105;-66
2021/11/05 06:55:08;;;;;;;35.28;13.10;;;;;;;15.74;100.00;101350.04;1723905;81;21040;-66
2021/11/05 06:57:35;;;;;;;27.05;12.53;;;;;;;15.81;100.00;101345.72;1734119;81;21063;-66
2021/11/05 07:00:06;;;;;;;27.62;12.43;;;;;;;15.89;100.00;101353.87;1728935;81;21089;-66
2021/11/05 07:02:40;;;;;;;24.40;12.47;;;;;;;15.95;100.00;101344.59;1755094;80;21028;-65
2021/11/05 07:05:06;;;;;;;31.55;12.73;;;;;;;16.00;100.00;101350.64;1728404;80;21119;-65
2021/11/05 07:07:33;;;;;;;31.50;12.00;;;;;;;16.04;100.00;101348.22;1787484;79;21527;-66
2021/11/05 07:10:00;;;;;;;22.30;12.15;;;;;;;16.10;100.00;101346.16;1792122;77;21043;-65
2021/11/05 07:12:27;;;;;;;24.95;11.83;;;;;;;16.14;100.00;101353.17;1792877;79;21460;-64
2021/11/05 07:14:54;;;;;;;25.40;12.68;;;;;;;16.18;100.00;101350.70;1791136;79;21095;-64
2021/11/05 07:17:22;;;;;;;20.25;11.73;;;;;;;16.22;100.00;101362.27;1790033;79;21050;-64
2021/11/05 07:19:49;;;;;;;24.63;11.80;;;;;;;16.24;100.00;101359.00;1788727;77;21130;-64
2021/11/05 07:22:17;;;;;;;25.62;12.03;;;;;;;16.27;100.00;101358.85;1791953;79;21421;-65
2021/11/05 07:24:45;;;;;;;24.07;12.20;;;;;;;16.29;100.00;101355.59;1789550;78;21854;-65
2021/11/05 07:27:11;;;;;;;24.35;12.20;;;;;;;16.33;100.00;101358.08;1787473;79;21491;-55
2021/11/05 07:29:42;;;;;;;24.60;12.18;;;;;;;16.40;100.00;101357.77;1787541;77;21049;-57
2021/11/05 07:32:09;;;;;;;26.27;12.18;;;;;;;16.46;100.00;101356.09;1789774;78;21059;-57
2021/11/05 07:34:37;;;;;;;24.72;13.25;;;;;;;16.52;100.00;101358.52;1782998;79;21112;-57
2021/11/05 07:37:08;;;;;;;26.27;12.82;;;;;;;16.57;100.00;101365.92;1782539;79;21604;-56
2021/11/05 07:39:34;;;;;;;25.85;13.08;;;;;;;16.63;100.00;101366.55;1785720;77;21203;-56
2021/11/05 07:42:01;;;;;;;21.35;11.50;;;;;;;16.66;100.00;101371.80;1783011;79;21154;-57
2021/11/05 07:44:28;;;;;;;26.97;11.57;;;;;;;16.72;100.00;101364.25;1785011;79;21330;-56
2021/11/05 07:46:54;;;;;;;23.60;11.97;;;;;;;16.79;100.00;101362.58;1787633;79;21056;-57
2021/11/05 07:49:22;;;;;;;24.75;11.57;;;;;;;16.86;100.00;101358.13;1786535;79;21060;-56
2021/11/05 07:51:49;;;;;;;26.10;12.55;;;;;;;16.93;100.00;101368.16;1776370;79;21499;-58
2021/11/05 07:54:16;;;;;;;20.45;11.73;;;;;;;16.98;100.00;101363.88;1756204;79;21044;-56
2021/11/05 07:56:43;;;;;;;24.92;12.03;;;;;;;17.00;100.00;101371.47;1775681;79;21576;-58
2021/11/05 07:59:10;;;;;;;27.13;12.33;;;;;;;17.03;100.00;101369.95;1774673;79;21127;-57
2021/11/05 08:01:37;;;;;;;23.95;11.22;;;;;;;17.06;99.64;101364.36;1776382;79;21079;-58
2021/11/05 08:04:04;;;;;;;28.83;11.97;;;;;;;17.10;99.27;101375.42;1779347;79;21094;-57
2021/11/05 08:06:31;;;;;;;20.12;12.05;;;;;;;17.13;98.72;101368.52;1778047;79;21078;-58
2021/11/05 08:08:58;;;;;;;26.82;11.55;;;;;;;17.17;98.58;101370.11;1777802;79;21035;-58
2021/11/05 08:11:29;;;;;;;23.83;11.28;;;;;;;17.23;97.96;101376.15;1777569;79;21088;-57
2021/11/05 08:13:54;;;;;;;19.30;10.98;;;;;;;17.25;97.46;101366.09;1778153;79;21029;-58
2021/11/05 08:16:21;;;;;;;18.85;10.88;;;;;;;17.25;96.98;101369.70;1779215;79;21246;-58
2021/11/05 08:18:48;;;;;;;22.70;11.12;;;;;;;17.24;96.64;101367.06;1743067;80;21337;-57
2021/11/05 08:21:15;;;;;;;22.30;10.82;;;;;;;17.25;96.54;101376.94;1734420;81;21084;-57
2021/11/05 08:23:41;;;;;;;21.20;11.63;;;;;;;17.23;96.33;101374.30;1726878;81;21056;-57
2021/11/05 08:26:08;;;;;;;22.45;11.12;;;;;;;17.24;96.46;101368.41;1725367;81;21570;-56
2021/11/05 08:28:38;;;;;;;19.48;10.48;;;;;;;17.24;96.36;101373.84;1725176;81;21107;-57
2021/11/05 08:31:04;;;;;;;17.35;11.20;;;;;;;17.22;96.11;101374.40;1727224;81;21621;-57
2021/11/05 08:33:31;;;;;;;23.00;12.88;;;;;;;17.18;95.99;101367.80;1718245;81;21523;-57
2021/11/05 08:35:59;;;;;;;25.25;12.37;;;;;;;17.15;96.10;101361.19;1731482;81;21147;-56
2021/11/05 08:38:26;;;;;;;21.57;12.25;;;;;;;17.15;96.30;101369.31;1717272;81;21119;-57
2021/11/05 08:40:54;;;;;;;25.40;11.83;;;;;;;17.14;96.23;101363.50;1713760;82;21971;-57
2021/11/05 08:43:25;;;;;;;26.60;11.45;;;;;;;17.15;96.27;101361.65;1730491;81;21178;-57
2021/11/05 08:45:51;;;;;;;29.40;11.65;;;;;;;17.17;96.38;101371.46;1726997;81;21071;-57
2021/11/05 08:48:21;;;;;;;29.85;11.78;;;;;;;17.25;96.11;101368.81;1727643;81;21059;-55
2021/11/05 08:50:49;;;;;;;22.67;11.40;;;;;;;17.28;95.66;101365.94;1733102;81;21029;-57
2021/11/05 08:53:17;;;;;;;24.52;11.85;;;;;;;17.30;95.53;101359.48;1741305;81;22011;-58
2021/11/05 08:55:45;;;;;;;20.82;11.83;;;;;;;17.34;95.27;101354.75;1738161;81;21627;-57
2021/11/05 08:58:12;;;;;;;26.17;11.45;;;;;;;17.39;94.82;101347.27;1787611;79;21078;-56
2021/11/05 09:00:39;;;;;;;30.10;12.33;;;;;;;17.39;94.49;101348.63;1790186;78;21123;-57
2021/11/05 09:03:09;;;;;;;34.85;12.95;;;;;;;17.43;94.45;101361.05;1785942;79;21414;-56
2021/11/05 09:05:42;;;;;;;33.45;12.15;;;;;;;17.47;94.28;101355.85;1759511;79;21073;-57
2021/11/05 09:08:11;;;;;;;24.02;12.25;;;;;;;17.47;94.11;101354.50;1768162;79;21517;-58
2021/11/05 09:10:39;;;;;;;21.65;10.72;;;;;;;17.45;93.81;101346.04;1785793;78;21508;-56
2021/11/05 09:13:08;;;;;;;25.72;11.38;;;;;;;17.41;93.68;101344.45;1789478;79;21483;-57
2021/11/05 09:15:35;;;;;;;43.98;12.28;;;;;;;17.32;93.58;101354.86;1787778;79;21135;-56
2021/11/05 09:18:07;;;;;;;24.87;11.93;;;;;;;17.26;93.89;101355.66;1788491;78;21107;-56
2021/11/05 09:20:34;;;;;;;20.97;11.78;;;;;;;17.25;94.29;101357.97;1791548;79;21358;-56
2021/11/05 09:23:01;;;;;;;25.00;12.58;;;;;;;17.25;94.26;101360.68;1792036;79;21103;-56
2021/11/05 09:25:28;;;;;;;22.05;11.80;;;;;;;17.21;94.52;101363.16;1792564;79;20996;-57
2021/11/05 09:27:55;;;;;;;28.10;12.37;;;;;;;17.18;94.88;101365.55;1786639;78;21087;-56
2021/11/05 09:30:23;;;;;;;25.50;12.85;;;;;;;17.22;95.00;101356.78;1789993;79;21165;-56
2021/11/05 09:32:52;;;;;;;29.10;12.37;;;;;;;17.29;94.93;101364.97;1782621;79;21043;-58
2021/11/05 09:35:21;;;;;;;23.00;11.80;;;;;;;17.30;94.53;101359.95;1787209;79;21051;-55
2021/11/05 09:37:49;;;;;;;21.97;11.22;;;;;;;17.29;94.26;101341.48;1793687;79;21365;-56
2021/11/05 09:40:18;;;;;;;23.40;12.25;;;;;;;17.23;94.05;101340.92;1783378;78;21081;-58
2021/11/05 09:42:48;;;;;;;23.27;13.15;;;;;;;17.18;94.17;101354.70;1790207;79;21037;-56
2021/11/05 09:45:15;;;;;;;32.13;14.60;;;;;;;17.13;94.50;101359.04;1750068;80;21060;-55
2021/11/05 09:47:43;;;;;;;25.30;12.15;;;;;;;17.11;94.74;101358.71;1726510;82;21031;-57
2021/11/05 09:50:11;;;;;;;30.82;12.65;;;;;;;17.10;94.94;101352.40;1719829;81;21107;-56
2021/11/05 09:52:39;;;;;;;26.23;12.60;;;;;;;17.12;95.04;101354.55;1716391;82;21106;-56
2021/11/05 09:55:07;;;;;;;23.30;12.85;;;;;;;17.13;95.07;101354.98;1726856;80;21153;-57
2021/11/05 09:57:34;;;;;;;29.90;13.55;;;;;;;17.17;95.13;101345.72;1727502;80;21114;-57
2021/11/05 10:00:03;;;;;;;26.50;12.80;;;;;;;17.22;95.08;101352.72;1741813;80;21080;-57
2021/11/05 10:02:32;;;;;;;26.77;13.00;;;;;;;17.28;94.97;101348.31;1725515;81;21581;-56
2021/11/05 10:05:01;;;;;;;24.37;13.13;;;;;;;17.34;94.69;101360.17;1746772;80;20964;-57
2021/11/05 10:07:29;;;;;;;22.45;12.37;;;;;;;17.43;94.36;101370.53;1789704;79;21589;-57
2021/11/05 10:09:57;;;;;;;21.80;12.78;;;;;;;17.53;94.08;101374.09;1784748;77;21335;-57
2021/11/05 10:12:27;;;;;;;22.48;13.28;;;;;;;17.58;93.53;101369.31;1786388;79;21627;-56
2021/11/05 10:15:02;;;;;;;22.52;12.63;;;;;;;17.56;93.27;101373.45;1785452;79;21089;-57
2021/11/05 10:17:32;;;;;;;28.55;13.25;;;;;;;17.55;93.13;101355.90;1787448;77;21651;-57
2021/11/05 10:20:06;;;;;;;25.70;12.98;;;;;;;17.56;93.03;101363.07;1790648;79;21519;-57
2021/11/05 10:22:50;;;;;;;27.27;13.35;;;;;;;17.59;93.06;101365.64;1790113;79;21016;-56
2021/11/05 10:25:37;;;;;;;24.80;12.50;;;;;;;17.63;92.73;101363.16;1786383;79;21538;-57
2021/11/05 10:28:24;;;;;;;20.45;11.60;;;;;;;17.67;92.56;101359.30;1789547;77;21473;-64
2021/11/05 10:31:01;;;;;;;20.43;11.53;;;;;;;17.69;92.22;101343.82;1790268;79;21080;-63
2021/11/05 10:33:39;;;;;;;20.15;11.48;;;;;;;17.76;91.78;101352.00;1791669;78;21691;-56
2021/11/05 10:36:10;;;;;;;23.35;11.80;;;;;;;17.78;91.40;101338.83;1783740;78;21480;-63
2021/11/05 10:38:53;;;;;;;30.77;12.43;;;;;;;17.78;91.15;101338.83;1793221;77;20977;-65
2021/11/05 10:41:24;;;;;;;25.62;12.28;;;;;;;17.71;90.97;101333.76;1787886;78;21123;-55
2021/11/05 10:44:00;;;;;;;20.70;11.45;;;;;;;17.60;91.23;101319.45;1791171;79;21507;-57
2021/11/05 10:46:34;;;;;;;21.68;11.55;;;;;;;17.55;91.31;101323.37;1789733;77;21654;-65
2021/11/05 10:49:25;;;;;;;21.82;12.28;;;;;;;17.50;91.56;101325.46;1785495;77;21053;-57
2021/11/05 10:51:52;;;;;;;21.62;12.00;;;;;;;17.40;91.84;101327.80;1764531;79;21663;-57
2021/11/05 10:54:19;;;;;;;29.30;12.68;;;;;;;17.29;92.32;101335.16;1746509;80;21109;-56
2021/11/05 10:56:47;;;;;;;21.65;12.23;;;;;;;17.21;92.69;101325.23;1749475;79;21056;-57
2021/11/05 10:59:14;;;;;;;25.43;12.53;;;;;;;17.16;93.11;101329.53;1717425;82;21140;-65
2021/11/05 11:01:42;;;;;;;23.83;11.85;;;;;;;17.13;93.31;101330.59;1743478;80;21088;-65
2021/11/05 11:04:11;;;;;;;26.07;13.05;;;;;;;17.05;93.56;101321.98;1750043;80;21434;-64
2021/11/05 11:06:45;;;;;;;22.82;11.68;;;;;;;16.98;94.04;101326.84;1755259;79;21075;-65